createdAt,value
2022-12-17T00:00:27.468Z,99.77
2022-12-17T00:05:30.130Z,99.60
2022-12-17T00:10:33.595Z,99.29
2022-12-17T00:15:35.640Z,99.67
2022-12-17T00:20:37.747Z,99.42
2022-12-17T00:25:42.060Z,99.21
2022-12-17T00:30:51.654Z,99.47
2022-12-17T00:35:54.743Z,99.39
2022-12-17T00:40:59.759Z,99.25
2022-12-17T00:46:01.879Z,99.31
2022-12-17T00:51:04.769Z,99.45
2022-12-17T00:56:08.663Z,99.66
2022-12-17T01:01:11.379Z,99.65
2022-12-17T01:06:14.284Z,100.00
2022-12-17T01:11:18.002Z,100.00
2022-12-17T01:16:20.068Z,99.52
2022-12-17T01:21:22.375Z,99.49
2022-12-17T01:26:25.812Z,99.77
2022-12-17T01:31:34.323Z,99.80
2022-12-17T01:36:37.201Z,100.00
2022-12-17T01:41:40.534Z,100.00
2022-12-17T01:46:50.017Z,100.00
2022-12-17T01:51:52.739Z,100.00
2022-12-17T01:57:00.634Z,100.00
2022-12-17T02:02:03.051Z,100.00
2022-12-17T02:07:24.127Z,100.00
2022-12-17T02:12:33.730Z,100.00
2022-12-17T02:17:49.499Z,100.00
2022-12-17T02:23:04.751Z,100.00
2022-12-17T02:28:08.556Z,100.00
2022-12-17T02:33:12.495Z,100.00
2022-12-17T02:38:19.966Z,100.00
2022-12-17T02:43:25.506Z,100.00
2022-12-17T02:48:27.947Z,100.00
2022-12-17T02:53:32.894Z,100.00
2022-12-17T02:58:36.346Z,100.00
2022-12-17T03:03:38.892Z,100.00
2022-12-17T03:08:44.400Z,100.00
2022-12-17T03:13:47.852Z,100.00
2022-12-17T03:18:50.554Z,100.00
2022-12-17T03:23:52.628Z,100.00
2022-12-17T03:28:56.108Z,100.00
2022-12-17T03:33:58.446Z,100.00
2022-12-17T03:39:00.567Z,100.00
2022-12-17T03:44:04.195Z,100.00
2022-12-17T03:49:06.595Z,100.00
2022-12-17T03:54:08.926Z,100.00
2022-12-17T03:59:12.542Z,100.00
2022-12-17T04:04:14.599Z,100.00
2022-12-17T04:09:17.026Z,100.00
2022-12-17T04:14:20.464Z,100.00
2022-12-17T04:19:22.584Z,100.00
2022-12-17T04:24:25.016Z,100.00
2022-12-17T04:29:28.505Z,100.00
2022-12-17T04:34:30.618Z,100.00
2022-12-17T04:39:32.943Z,100.00
2022-12-17T04:44:36.850Z,100.00
2022-12-17T04:49:38.843Z,100.00
2022-12-17T04:54:40.885Z,100.00
2022-12-17T04:59:43.925Z,100.00
2022-12-17T05:04:45.692Z,100.00
2022-12-17T05:09:48.078Z,100.00
2022-12-17T05:14:51.529Z,100.00
2022-12-17T05:19:53.845Z,100.00
2022-12-17T05:24:55.861Z,100.00
2022-12-17T05:29:59.305Z,100.00
2022-12-17T05:35:01.380Z,100.00
2022-12-17T05:40:07.794Z,100.00
2022-12-17T05:45:14.828Z,100.00
2022-12-17T05:50:17.129Z,100.00
2022-12-17T05:55:19.398Z,100.00
2022-12-17T06:00:23.059Z,100.00
2022-12-17T06:05:25.151Z,100.00
2022-12-17T06:10:27.772Z,100.00
2022-12-17T06:15:31.287Z,100.00
2022-12-17T06:20:33.077Z,100.00
2022-12-17T06:25:35.319Z,100.00
2022-12-17T06:30:38.707Z,100.00
2022-12-17T06:35:40.860Z,100.00
2022-12-17T06:40:43.057Z,100.00
2022-12-17T06:45:46.288Z,100.00
2022-12-17T06:50:48.087Z,100.00
2022-12-17T06:55:50.313Z,100.00
2022-12-17T07:00:53.531Z,100.00
2022-12-17T07:05:55.632Z,100.00
2022-12-17T07:10:59.588Z,100.00
2022-12-17T07:16:03.263Z,100.00
2022-12-17T07:21:05.274Z,100.00
2022-12-17T07:26:07.540Z,100.00
2022-12-17T07:31:10.734Z,100.00
2022-12-17T07:36:12.831Z,100.00
2022-12-17T07:41:14.706Z,100.00
2022-12-17T07:46:17.916Z,100.00
2022-12-17T07:51:19.707Z,99.84
2022-12-17T07:56:22.333Z,99.17
2022-12-17T08:01:26.096Z,98.04
2022-12-17T08:06:28.065Z,96.83
2022-12-17T08:11:30.400Z,96.31
2022-12-17T08:16:33.645Z,95.95
2022-12-17T08:21:35.432Z,96.40
2022-12-17T08:26:37.352Z,96.10
2022-12-17T08:31:40.389Z,95.79
2022-12-17T08:36:42.036Z,96.19
2022-12-17T08:41:52.639Z,95.79
2022-12-17T08:46:58.185Z,95.55
2022-12-17T08:52:00.727Z,94.58
2022-12-17T08:57:02.842Z,95.13
2022-12-17T09:02:06.750Z,95.29
2022-12-17T09:07:08.958Z,94.93
2022-12-17T09:12:11.343Z,94.99
2022-12-17T09:17:14.454Z,95.22
2022-12-17T09:22:16.847Z,94.81
2022-12-17T09:27:19.031Z,94.68
2022-12-17T09:32:22.449Z,93.92
2022-12-17T09:37:24.545Z,93.92
2022-12-17T09:42:34.824Z,93.82
2022-12-17T09:47:50.179Z,93.93
2022-12-17T09:52:52.719Z,93.45
2022-12-17T09:57:55.330Z,92.61
2022-12-17T10:02:59.237Z,93.16
2022-12-17T10:08:05.706Z,93.80
2022-12-17T10:13:11.600Z,94.15
2022-12-17T10:18:17.629Z,93.67
2022-12-17T10:23:24.351Z,92.79
2022-12-17T10:28:32.459Z,91.65
2022-12-17T10:33:40.332Z,91.96
2022-12-17T10:38:43.099Z,92.79
2022-12-17T10:43:45.125Z,92.84
2022-12-17T10:48:48.610Z,92.86
2022-12-17T10:53:52.806Z,92.27
2022-12-17T10:58:55.853Z,92.99
2022-12-17T11:03:59.287Z,94.41
2022-12-17T11:09:07.514Z,94.46
2022-12-17T11:14:12.434Z,94.18
2022-12-17T11:19:28.373Z,93.90
2022-12-17T11:24:37.976Z,94.19
2022-12-17T11:29:40.074Z,95.62
2022-12-17T11:35:03.961Z,93.74
2022-12-17T11:40:20.311Z,93.25
2022-12-17T11:45:32.509Z,92.36
2022-12-17T11:50:43.702Z,92.43
2022-12-17T11:55:54.653Z,93.51
2022-12-17T12:01:09.625Z,93.29
2022-12-17T12:06:18.153Z,94.54
2022-12-17T12:11:31.504Z,94.38
2022-12-17T12:16:45.440Z,93.35
2022-12-17T12:21:57.797Z,94.52
2022-12-17T12:27:10.736Z,94.90
2022-12-17T12:32:20.772Z,94.66
2022-12-17T12:37:24.725Z,94.94
2022-12-17T12:42:34.924Z,94.55
2022-12-17T12:47:46.084Z,94.18
2022-12-17T12:52:49.828Z,95.09
2022-12-17T12:57:59.729Z,95.77
2022-12-17T13:03:07.846Z,95.99
2022-12-17T13:08:22.466Z,96.15
2022-12-17T13:13:33.996Z,96.75
2022-12-17T13:18:38.623Z,96.95
2022-12-17T13:23:42.681Z,97.20
2022-12-17T13:28:59.422Z,97.18
2022-12-17T13:34:11.313Z,97.29
2022-12-17T13:39:29.229Z,97.99
2022-12-17T13:44:38.919Z,98.19
2022-12-17T13:49:41.014Z,98.49
2022-12-17T13:54:44.432Z,98.43
2022-12-17T13:59:50.401Z,98.79
2022-12-17T14:04:53.285Z,99.54
2022-12-17T14:09:57.365Z,99.87
2022-12-17T14:15:02.451Z,100.00
2022-12-17T14:20:07.552Z,100.00
2022-12-17T14:25:17.465Z,98.83
2022-12-17T14:30:22.727Z,99.36
2022-12-17T14:35:27.743Z,99.19
2022-12-17T14:40:31.359Z,99.44
2022-12-17T14:45:33.672Z,99.73
2022-12-17T14:50:37.344Z,100.00
2022-12-17T14:55:55.568Z,99.50
2022-12-17T15:01:04.996Z,99.56
2022-12-17T15:06:10.100Z,100.00
2022-12-17T15:11:15.781Z,99.90
2022-12-17T15:16:17.589Z,100.00
2022-12-17T15:21:20.459Z,100.00
2022-12-17T15:26:24.016Z,100.00
2022-12-17T15:31:30.609Z,100.00
2022-12-17T15:36:35.964Z,100.00
2022-12-17T15:41:39.469Z,100.00
2022-12-17T15:46:41.462Z,100.00
2022-12-17T15:51:43.616Z,100.00
2022-12-17T15:56:54.403Z,100.00
2022-12-17T16:01:56.636Z,100.00
2022-12-17T16:06:58.930Z,100.00
2022-12-17T16:12:01.970Z,100.00
2022-12-17T16:17:04.154Z,100.00
2022-12-17T16:22:06.721Z,100.00
2022-12-17T16:27:10.585Z,100.00
2022-12-17T16:32:15.144Z,100.00
2022-12-17T16:37:16.884Z,100.00
2022-12-17T16:42:20.424Z,100.00
2022-12-17T16:47:22.667Z,100.00
2022-12-17T16:52:24.627Z,100.00
2022-12-17T16:57:28.124Z,100.00
2022-12-17T17:02:30.366Z,100.00
2022-12-17T17:07:32.619Z,100.00
2022-12-17T17:12:36.029Z,100.00
2022-12-17T17:17:56.115Z,100.00
2022-12-17T17:23:00.416Z,100.00
2022-12-17T17:28:04.254Z,100.00
2022-12-17T17:33:06.003Z,100.00
2022-12-17T17:38:07.896Z,100.00
2022-12-17T17:43:11.399Z,100.00
2022-12-17T17:48:13.350Z,100.00
2022-12-17T17:53:15.195Z,100.00
2022-12-17T17:58:18.572Z,100.00
2022-12-17T18:03:20.389Z,100.00
2022-12-17T18:08:22.717Z,100.00
2022-12-17T18:13:26.567Z,100.00
2022-12-17T18:18:28.660Z,100.00
2022-12-17T18:23:31.490Z,100.00
2022-12-17T18:28:36.638Z,100.00
2022-12-17T18:33:40.943Z,100.00
2022-12-17T18:38:43.053Z,100.00
2022-12-17T18:43:46.374Z,100.00
2022-12-17T18:48:48.556Z,100.00
2022-12-17T18:53:50.971Z,100.00
2022-12-17T18:58:54.763Z,100.00
2022-12-17T19:03:57.845Z,100.00
2022-12-17T19:09:00.532Z,100.00
2022-12-17T19:14:03.752Z,100.00
2022-12-17T19:19:05.961Z,100.00
2022-12-17T19:24:11.639Z,100.00
2022-12-17T19:29:17.026Z,100.00
2022-12-17T19:34:20.224Z,100.00
2022-12-17T19:39:22.101Z,100.00
2022-12-17T19:44:25.668Z,100.00
2022-12-17T19:49:27.611Z,100.00
2022-12-17T19:54:29.868Z,100.00
2022-12-17T19:59:33.321Z,100.00
2022-12-17T20:04:36.223Z,100.00
2022-12-17T20:09:38.633Z,100.00
2022-12-17T20:14:42.832Z,100.00
2022-12-17T20:19:45.552Z,100.00
2022-12-17T20:24:48.004Z,100.00
2022-12-17T20:29:53.357Z,100.00
2022-12-17T20:34:56.006Z,100.00
2022-12-17T20:39:58.684Z,100.00
2022-12-17T20:45:02.732Z,100.00
2022-12-17T20:50:05.580Z,100.00
2022-12-17T20:55:08.464Z,100.00
2022-12-17T21:00:13.648Z,100.00
2022-12-17T21:05:16.757Z,100.00
2022-12-17T21:10:19.486Z,100.00
2022-12-17T21:15:22.811Z,100.00
2022-12-17T21:20:24.885Z,100.00
2022-12-17T21:25:27.209Z,100.00
2022-12-17T21:30:30.432Z,100.00
2022-12-17T21:35:32.650Z,100.00
2022-12-17T21:40:35.999Z,100.00
2022-12-17T21:45:42.159Z,100.00
2022-12-17T21:50:45.715Z,100.00
2022-12-17T21:55:49.213Z,100.00
2022-12-17T22:00:53.351Z,100.00
2022-12-17T22:05:55.589Z,100.00
2022-12-17T22:10:57.885Z,100.00
2022-12-17T22:16:06.031Z,100.00
2022-12-17T22:21:08.272Z,100.00
2022-12-17T22:26:10.987Z,100.00
2022-12-17T22:31:15.433Z,100.00
2022-12-17T22:37:22.318Z,100.00
2022-12-17T22:44:30.631Z,100.00
2022-12-17T22:47:07.266Z,100.00
2022-12-17T22:52:09.585Z,100.00
2022-12-17T22:57:35.710Z,100.00
2022-12-17T23:02:36.049Z,100.00
2022-12-17T23:07:38.758Z,100.00
2022-12-17T23:12:40.903Z,100.00
2022-12-17T23:17:44.483Z,100.00
2022-12-17T23:22:47.524Z,100.00
2022-12-17T23:27:50.941Z,100.00
2022-12-17T23:32:54.228Z,100.00
2022-12-17T23:37:56.570Z,100.00
2022-12-17T23:42:58.686Z,100.00
2022-12-17T23:48:02.315Z,100.00
2022-12-17T23:53:04.558Z,100.00
2022-12-17T23:58:06.655Z,100.00
